Terminal Aerodrome Forecast
Issued by NWS Milwaukee/Sullivan, WI

Home | Current Version | Previous Version | Text Only | Print | Product List | Glossary On
Versions: 1 2 3 4 5 6 7 8 9 10 11 12 13 14 15 16 17 18 19 20 21 22 23 24 25 26 27 28 29 30 31 32 33 34 35 36 37 38 39 40 41 42 43 44 45 46
000
FTUS43 KMKX 070523
TAFMSN
TAF
KMSN 070523Z 0706/0806 35010KT 6SM FU BR BKN015 OVC030
     FM070800 35009KT 5SM FU OVC030
     FM071100 01008KT P6SM SCT035
     FM072300 02007KT P6SM SCT200
     FM080300 VRB03KT P6SM FEW250=

USA.gov is the U.S. government's official web portal to all federal, state and local government web resources and services.